sensor_id;sensor_type;location;lat;lon;timestamp;P1;durP1;ratioP1;P2;durP2;ratioP2
26106;SDS011;13866;50.748;12.630;2023-12-20T00:01:02;4.80;;;4.60;;
26106;SDS011;13866;50.748;12.630;2023-12-20T00:03:28;4.40;;;4.07;;
26106;SDS011;13866;50.748;12.630;2023-12-20T00:05:53;4.30;;;4.10;;
26106;SDS011;13866;50.748;12.630;2023-12-20T00:08:19;4.00;;;4.00;;
26106;SDS011;13866;50.748;12.630;2023-12-20T00:10:44;3.73;;;3.73;;
26106;SDS011;13866;50.748;12.630;2023-12-20T00:13:10;3.87;;;3.77;;
26106;SDS011;13866;50.748;12.630;2023-12-20T00:15:36;3.73;;;3.63;;
26106;SDS011;13866;50.748;12.630;2023-12-20T00:18:01;3.57;;;3.47;;
26106;SDS011;13866;50.748;12.630;2023-12-20T00:20:27;4.93;;;4.83;;
26106;SDS011;13866;50.748;12.630;2023-12-20T00:22:57;3.73;;;3.73;;
26106;SDS011;13866;50.748;12.630;2023-12-20T00:25:23;3.50;;;3.50;;
26106;SDS011;13866;50.748;12.630;2023-12-20T00:27:48;3.90;;;3.60;;
26106;SDS011;13866;50.748;12.630;2023-12-20T00:30:14;3.70;;;3.63;;
26106;SDS011;13866;50.748;12.630;2023-12-20T00:32:39;3.87;;;3.87;;
26106;SDS011;13866;50.748;12.630;2023-12-20T00:35:11;4.03;;;3.80;;
26106;SDS011;13866;50.748;12.630;2023-12-20T00:37:39;3.47;;;3.17;;
26106;SDS011;13866;50.748;12.630;2023-12-20T00:40:05;3.07;;;3.07;;
26106;SDS011;13866;50.748;12.630;2023-12-20T00:42:31;3.63;;;3.63;;
26106;SDS011;13866;50.748;12.630;2023-12-20T00:44:58;2.90;;;2.90;;
26106;SDS011;13866;50.748;12.630;2023-12-20T00:47:24;2.33;;;2.33;;
26106;SDS011;13866;50.748;12.630;2023-12-20T00:49:49;2.90;;;2.90;;
26106;SDS011;13866;50.748;12.630;2023-12-20T00:52:15;2.30;;;2.30;;
26106;SDS011;13866;50.748;12.630;2023-12-20T00:54:42;3.10;;;3.10;;
26106;SDS011;13866;50.748;12.630;2023-12-20T00:57:07;2.97;;;2.97;;
26106;SDS011;13866;50.748;12.630;2023-12-20T00:59:33;2.20;;;2.20;;
26106;SDS011;13866;50.748;12.630;2023-12-20T01:01:58;2.00;;;2.00;;
26106;SDS011;13866;50.748;12.630;2023-12-20T01:04:24;2.50;;;2.50;;
26106;SDS011;13866;50.748;12.630;2023-12-20T01:06:49;2.20;;;2.20;;
26106;SDS011;13866;50.748;12.630;2023-12-20T01:09:15;1.93;;;1.93;;
26106;SDS011;13866;50.748;12.630;2023-12-20T01:11:40;2.07;;;2.07;;
26106;SDS011;13866;50.748;12.630;2023-12-20T01:14:06;2.30;;;2.20;;
26106;SDS011;13866;50.748;12.630;2023-12-20T01:16:31;2.00;;;2.00;;
26106;SDS011;13866;50.748;12.630;2023-12-20T01:18:57;2.30;;;2.30;;
26106;SDS011;13866;50.748;12.630;2023-12-20T01:21:22;2.07;;;2.07;;
26106;SDS011;13866;50.748;12.630;2023-12-20T01:23:48;2.00;;;2.00;;
26106;SDS011;13866;50.748;12.630;2023-12-20T01:26:14;2.23;;;2.20;;
26106;SDS011;13866;50.748;12.630;2023-12-20T01:28:40;1.93;;;1.93;;
26106;SDS011;13866;50.748;12.630;2023-12-20T01:31:05;1.77;;;1.77;;
26106;SDS011;13866;50.748;12.630;2023-12-20T01:33:31;1.90;;;1.90;;
26106;SDS011;13866;50.748;12.630;2023-12-20T01:35:56;2.13;;;2.13;;
26106;SDS011;13866;50.748;12.630;2023-12-20T01:38:22;2.27;;;2.27;;
26106;SDS011;13866;50.748;12.630;2023-12-20T01:40:47;1.87;;;1.87;;
26106;SDS011;13866;50.748;12.630;2023-12-20T01:43:13;1.60;;;1.60;;
26106;SDS011;13866;50.748;12.630;2023-12-20T01:45:38;1.97;;;1.97;;
26106;SDS011;13866;50.748;12.630;2023-12-20T01:48:04;2.30;;;2.30;;
26106;SDS011;13866;50.748;12.630;2023-12-20T01:50:31;1.90;;;1.80;;
26106;SDS011;13866;50.748;12.630;2023-12-20T01:53:00;2.13;;;2.13;;
26106;SDS011;13866;50.748;12.630;2023-12-20T01:55:28;1.93;;;1.93;;
26106;SDS011;13866;50.748;12.630;2023-12-20T01:57:56;1.90;;;1.90;;
26106;SDS011;13866;50.748;12.630;2023-12-20T02:00:23;2.03;;;2.03;;
26106;SDS011;13866;50.748;12.630;2023-12-20T02:02:51;1.97;;;1.97;;
26106;SDS011;13866;50.748;12.630;2023-12-20T02:05:18;1.80;;;1.80;;
26106;SDS011;13866;50.748;12.630;2023-12-20T02:07:44;1.83;;;1.83;;
26106;SDS011;13866;50.748;12.630;2023-12-20T02:10:09;1.70;;;1.70;;
26106;SDS011;13866;50.748;12.630;2023-12-20T02:12:35;1.50;;;1.50;;
26106;SDS011;13866;50.748;12.630;2023-12-20T02:15:01;1.77;;;1.77;;
26106;SDS011;13866;50.748;12.630;2023-12-20T02:17:27;1.63;;;1.63;;
26106;SDS011;13866;50.748;12.630;2023-12-20T02:19:52;1.53;;;1.53;;
26106;SDS011;13866;50.748;12.630;2023-12-20T02:22:18;1.60;;;1.60;;
26106;SDS011;13866;50.748;12.630;2023-12-20T02:24:43;1.60;;;1.60;;
26106;SDS011;13866;50.748;12.630;2023-12-20T02:27:09;1.63;;;1.63;;
26106;SDS011;13866;50.748;12.630;2023-12-20T02:29:35;1.60;;;1.60;;
26106;SDS011;13866;50.748;12.630;2023-12-20T02:32:00;2.00;;;2.00;;
26106;SDS011;13866;50.748;12.630;2023-12-20T02:34:26;1.40;;;1.30;;
26106;SDS011;13866;50.748;12.630;2023-12-20T02:36:52;1.70;;;1.70;;
26106;SDS011;13866;50.748;12.630;2023-12-20T02:39:18;1.43;;;1.43;;
26106;SDS011;13866;50.748;12.630;2023-12-20T02:41:44;1.30;;;1.30;;
26106;SDS011;13866;50.748;12.630;2023-12-20T02:44:10;1.27;;;1.27;;
26106;SDS011;13866;50.748;12.630;2023-12-20T02:46:35;1.20;;;1.20;;
26106;SDS011;13866;50.748;12.630;2023-12-20T02:49:01;1.43;;;1.43;;
26106;SDS011;13866;50.748;12.630;2023-12-20T02:51:26;1.30;;;1.30;;
26106;SDS011;13866;50.748;12.630;2023-12-20T02:53:52;1.53;;;1.40;;
26106;SDS011;13866;50.748;12.630;2023-12-20T02:56:17;1.30;;;1.20;;
26106;SDS011;13866;50.748;12.630;2023-12-20T02:58:42;1.23;;;1.23;;
26106;SDS011;13866;50.748;12.630;2023-12-20T03:01:08;1.33;;;1.33;;
26106;SDS011;13866;50.748;12.630;2023-12-20T03:03:33;1.47;;;1.47;;
26106;SDS011;13866;50.748;12.630;2023-12-20T03:05:59;1.40;;;1.40;;
26106;SDS011;13866;50.748;12.630;2023-12-20T03:08:25;1.20;;;1.20;;
26106;SDS011;13866;50.748;12.630;2023-12-20T03:10:50;1.23;;;1.23;;
26106;SDS011;13866;50.748;12.630;2023-12-20T03:13:16;1.30;;;1.30;;
26106;SDS011;13866;50.748;12.630;2023-12-20T03:15:41;1.30;;;1.30;;
26106;SDS011;13866;50.748;12.630;2023-12-20T03:18:07;1.10;;;1.10;;
26106;SDS011;13866;50.748;12.630;2023-12-20T03:20:32;1.30;;;1.30;;
26106;SDS011;13866;50.748;12.630;2023-12-20T03:22:59;1.10;;;1.10;;
26106;SDS011;13866;50.748;12.630;2023-12-20T03:25:25;1.00;;;1.00;;
26106;SDS011;13866;50.748;12.630;2023-12-20T03:27:50;1.07;;;1.07;;
26106;SDS011;13866;50.748;12.630;2023-12-20T03:30:17;1.30;;;1.20;;
26106;SDS011;13866;50.748;12.630;2023-12-20T03:32:43;1.10;;;1.10;;
26106;SDS011;13866;50.748;12.630;2023-12-20T03:35:09;1.10;;;1.10;;
26106;SDS011;13866;50.748;12.630;2023-12-20T03:37:34;1.47;;;1.47;;
26106;SDS011;13866;50.748;12.630;2023-12-20T03:40:00;1.20;;;1.20;;
26106;SDS011;13866;50.748;12.630;2023-12-20T03:42:26;1.20;;;1.20;;
26106;SDS011;13866;50.748;12.630;2023-12-20T03:44:51;1.20;;;1.20;;
26106;SDS011;13866;50.748;12.630;2023-12-20T03:47:17;1.40;;;1.40;;
26106;SDS011;13866;50.748;12.630;2023-12-20T03:49:42;0.90;;;0.90;;
26106;SDS011;13866;50.748;12.630;2023-12-20T03:52:08;1.10;;;1.10;;
26106;SDS011;13866;50.748;12.630;2023-12-20T03:54:34;1.00;;;1.00;;
26106;SDS011;13866;50.748;12.630;2023-12-20T03:57:00;1.20;;;1.20;;
26106;SDS011;13866;50.748;12.630;2023-12-20T03:59:26;1.10;;;1.10;;
26106;SDS011;13866;50.748;12.630;2023-12-20T04:01:51;1.20;;;1.20;;
26106;SDS011;13866;50.748;12.630;2023-12-20T04:04:17;1.10;;;1.10;;
26106;SDS011;13866;50.748;12.630;2023-12-20T04:06:42;1.30;;;1.30;;
26106;SDS011;13866;50.748;12.630;2023-12-20T04:09:08;1.20;;;1.20;;
26106;SDS011;13866;50.748;12.630;2023-12-20T04:11:36;1.17;;;1.17;;
26106;SDS011;13866;50.748;12.630;2023-12-20T04:14:02;1.03;;;1.03;;
26106;SDS011;13866;50.748;12.630;2023-12-20T04:16:29;0.80;;;0.80;;
26106;SDS011;13866;50.748;12.630;2023-12-20T04:18:55;1.10;;;1.10;;
26106;SDS011;13866;50.748;12.630;2023-12-20T04:21:20;0.80;;;0.80;;
26106;SDS011;13866;50.748;12.630;2023-12-20T04:23:46;1.10;;;1.10;;
26106;SDS011;13866;50.748;12.630;2023-12-20T04:26:11;1.30;;;1.30;;
26106;SDS011;13866;50.748;12.630;2023-12-20T04:28:37;1.80;;;1.20;;
26106;SDS011;13866;50.748;12.630;2023-12-20T04:31:02;1.27;;;1.27;;
26106;SDS011;13866;50.748;12.630;2023-12-20T04:33:28;1.23;;;1.23;;
26106;SDS011;13866;50.748;12.630;2023-12-20T04:35:53;1.10;;;1.10;;
26106;SDS011;13866;50.748;12.630;2023-12-20T04:38:19;1.00;;;1.00;;
26106;SDS011;13866;50.748;12.630;2023-12-20T04:40:44;0.90;;;0.90;;
26106;SDS011;13866;50.748;12.630;2023-12-20T04:43:10;0.90;;;0.90;;
26106;SDS011;13866;50.748;12.630;2023-12-20T04:45:35;1.20;;;1.20;;
26106;SDS011;13866;50.748;12.630;2023-12-20T04:48:01;1.00;;;1.00;;
26106;SDS011;13866;50.748;12.630;2023-12-20T04:50:27;1.07;;;1.07;;
26106;SDS011;13866;50.748;12.630;2023-12-20T04:52:53;0.90;;;0.90;;
26106;SDS011;13866;50.748;12.630;2023-12-20T04:55:18;1.00;;;1.00;;
26106;SDS011;13866;50.748;12.630;2023-12-20T04:57:44;0.90;;;0.90;;
26106;SDS011;13866;50.748;12.630;2023-12-20T05:00:10;1.00;;;1.00;;
26106;SDS011;13866;50.748;12.630;2023-12-20T05:02:37;1.40;;;1.20;;
26106;SDS011;13866;50.748;12.630;2023-12-20T05:05:02;1.00;;;1.00;;
26106;SDS011;13866;50.748;12.630;2023-12-20T05:07:28;0.80;;;0.80;;
26106;SDS011;13866;50.748;12.630;2023-12-20T05:09:53;1.03;;;1.03;;
26106;SDS011;13866;50.748;12.630;2023-12-20T05:12:19;1.20;;;1.20;;
26106;SDS011;13866;50.748;12.630;2023-12-20T05:14:44;1.30;;;1.30;;
26106;SDS011;13866;50.748;12.630;2023-12-20T05:17:11;1.20;;;1.20;;
26106;SDS011;13866;50.748;12.630;2023-12-20T05:19:36;1.20;;;1.20;;
26106;SDS011;13866;50.748;12.630;2023-12-20T05:22:02;1.40;;;1.40;;
26106;SDS011;13866;50.748;12.630;2023-12-20T05:24:28;7.30;;;1.10;;
26106;SDS011;13866;50.748;12.630;2023-12-20T05:26:53;1.10;;;1.10;;
26106;SDS011;13866;50.748;12.630;2023-12-20T05:29:19;1.27;;;1.27;;
26106;SDS011;13866;50.748;12.630;2023-12-20T05:31:45;1.30;;;1.30;;
26106;SDS011;13866;50.748;12.630;2023-12-20T05:34:10;1.20;;;1.20;;
26106;SDS011;13866;50.748;12.630;2023-12-20T05:36:36;1.30;;;1.30;;
26106;SDS011;13866;50.748;12.630;2023-12-20T05:39:02;1.20;;;1.20;;
26106;SDS011;13866;50.748;12.630;2023-12-20T05:41:29;1.40;;;1.40;;
26106;SDS011;13866;50.748;12.630;2023-12-20T05:43:55;1.27;;;1.27;;
26106;SDS011;13866;50.748;12.630;2023-12-20T05:46:20;1.37;;;1.37;;
26106;SDS011;13866;50.748;12.630;2023-12-20T05:48:46;1.20;;;1.20;;
26106;SDS011;13866;50.748;12.630;2023-12-20T05:51:12;1.40;;;1.40;;
26106;SDS011;13866;50.748;12.630;2023-12-20T05:53:38;1.37;;;1.37;;
26106;SDS011;13866;50.748;12.630;2023-12-20T05:56:03;1.57;;;1.57;;
26106;SDS011;13866;50.748;12.630;2023-12-20T05:58:29;1.90;;;1.90;;
26106;SDS011;13866;50.748;12.630;2023-12-20T06:00:55;1.33;;;1.33;;
26106;SDS011;13866;50.748;12.630;2023-12-20T06:03:20;1.70;;;1.70;;
26106;SDS011;13866;50.748;12.630;2023-12-20T06:05:46;1.70;;;1.70;;
26106;SDS011;13866;50.748;12.630;2023-12-20T06:08:11;1.80;;;1.80;;
26106;SDS011;13866;50.748;12.630;2023-12-20T06:10:37;2.00;;;2.00;;
26106;SDS011;13866;50.748;12.630;2023-12-20T06:13:02;4.87;;;2.40;;
26106;SDS011;13866;50.748;12.630;2023-12-20T06:15:29;1.90;;;1.90;;
26106;SDS011;13866;50.748;12.630;2023-12-20T06:17:55;2.20;;;2.20;;
26106;SDS011;13866;50.748;12.630;2023-12-20T06:20:20;2.00;;;2.00;;
26106;SDS011;13866;50.748;12.630;2023-12-20T06:22:46;2.60;;;2.60;;
26106;SDS011;13866;50.748;12.630;2023-12-20T06:25:11;3.53;;;3.23;;
26106;SDS011;13866;50.748;12.630;2023-12-20T06:27:37;3.80;;;3.30;;
26106;SDS011;13866;50.748;12.630;2023-12-20T06:30:02;2.67;;;2.67;;
26106;SDS011;13866;50.748;12.630;2023-12-20T06:32:28;2.40;;;2.40;;
26106;SDS011;13866;50.748;12.630;2023-12-20T06:34:54;2.60;;;2.60;;
26106;SDS011;13866;50.748;12.630;2023-12-20T06:37:20;2.80;;;2.80;;
26106;SDS011;13866;50.748;12.630;2023-12-20T06:39:45;3.33;;;3.00;;
26106;SDS011;13866;50.748;12.630;2023-12-20T06:42:11;2.73;;;2.63;;
26106;SDS011;13866;50.748;12.630;2023-12-20T06:44:37;2.97;;;2.87;;
26106;SDS011;13866;50.748;12.630;2023-12-20T06:47:03;2.73;;;2.63;;
26106;SDS011;13866;50.748;12.630;2023-12-20T06:49:29;2.30;;;2.30;;
26106;SDS011;13866;50.748;12.630;2023-12-20T06:51:55;2.73;;;2.00;;
26106;SDS011;13866;50.748;12.630;2023-12-20T06:54:20;2.57;;;2.57;;
26106;SDS011;13866;50.748;12.630;2023-12-20T06:56:46;2.67;;;2.60;;
26106;SDS011;13866;50.748;12.630;2023-12-20T06:59:11;1.93;;;1.93;;
26106;SDS011;13866;50.748;12.630;2023-12-20T07:01:37;2.10;;;2.10;;
26106;SDS011;13866;50.748;12.630;2023-12-20T07:04:03;2.07;;;2.07;;
26106;SDS011;13866;50.748;12.630;2023-12-20T07:06:28;2.57;;;1.90;;
26106;SDS011;13866;50.748;12.630;2023-12-20T07:08:54;2.23;;;2.23;;
26106;SDS011;13866;50.748;12.630;2023-12-20T07:11:19;2.03;;;2.03;;
26106;SDS011;13866;50.748;12.630;2023-12-20T07:13:45;2.43;;;2.20;;
26106;SDS011;13866;50.748;12.630;2023-12-20T07:16:10;2.50;;;2.33;;
26106;SDS011;13866;50.748;12.630;2023-12-20T07:18:36;2.57;;;2.57;;
26106;SDS011;13866;50.748;12.630;2023-12-20T07:21:01;7.57;;;2.60;;
26106;SDS011;13866;50.748;12.630;2023-12-20T07:23:27;3.33;;;2.97;;
26106;SDS011;13866;50.748;12.630;2023-12-20T07:25:52;3.50;;;3.30;;
26106;SDS011;13866;50.748;12.630;2023-12-20T07:28:18;2.70;;;2.60;;
26106;SDS011;13866;50.748;12.630;2023-12-20T07:30:43;3.37;;;3.07;;
26106;SDS011;13866;50.748;12.630;2023-12-20T07:33:09;2.33;;;2.33;;
26106;SDS011;13866;50.748;12.630;2023-12-20T07:35:35;2.30;;;2.30;;
26106;SDS011;13866;50.748;12.630;2023-12-20T07:38:00;4.00;;;2.40;;
26106;SDS011;13866;50.748;12.630;2023-12-20T07:40:27;2.43;;;2.43;;
26106;SDS011;13866;50.748;12.630;2023-12-20T07:42:52;2.40;;;2.40;;
26106;SDS011;13866;50.748;12.630;2023-12-20T07:45:18;2.63;;;2.53;;
26106;SDS011;13866;50.748;12.630;2023-12-20T07:47:43;2.70;;;2.60;;
26106;SDS011;13866;50.748;12.630;2023-12-20T07:50:09;3.27;;;3.27;;
26106;SDS011;13866;50.748;12.630;2023-12-20T07:52:35;4.17;;;3.97;;
26106;SDS011;13866;50.748;12.630;2023-12-20T07:55:00;4.53;;;4.43;;
26106;SDS011;13866;50.748;12.630;2023-12-20T07:57:28;4.10;;;3.97;;
26106;SDS011;13866;50.748;12.630;2023-12-20T07:59:54;4.60;;;4.17;;
26106;SDS011;13866;50.748;12.630;2023-12-20T08:02:20;4.93;;;4.80;;
26106;SDS011;13866;50.748;12.630;2023-12-20T08:04:45;3.87;;;3.80;;
26106;SDS011;13866;50.748;12.630;2023-12-20T08:07:11;3.43;;;3.43;;
26106;SDS011;13866;50.748;12.630;2023-12-20T08:09:36;3.50;;;3.50;;
26106;SDS011;13866;50.748;12.630;2023-12-20T08:12:02;3.73;;;3.73;;
26106;SDS011;13866;50.748;12.630;2023-12-20T08:14:27;3.17;;;3.17;;
26106;SDS011;13866;50.748;12.630;2023-12-20T08:16:53;2.80;;;2.80;;
26106;SDS011;13866;50.748;12.630;2023-12-20T08:19:18;2.53;;;2.53;;
26106;SDS011;13866;50.748;12.630;2023-12-20T08:21:44;2.70;;;2.70;;
26106;SDS011;13866;50.748;12.630;2023-12-20T08:24:09;2.57;;;2.57;;
26106;SDS011;13866;50.748;12.630;2023-12-20T08:26:35;2.40;;;2.40;;
26106;SDS011;13866;50.748;12.630;2023-12-20T08:29:00;2.60;;;2.60;;
26106;SDS011;13866;50.748;12.630;2023-12-20T08:31:26;2.00;;;2.00;;
26106;SDS011;13866;50.748;12.630;2023-12-20T08:33:52;1.60;;;1.60;;
26106;SDS011;13866;50.748;12.630;2023-12-20T08:36:18;1.73;;;1.73;;
26106;SDS011;13866;50.748;12.630;2023-12-20T08:38:46;1.63;;;1.63;;
26106;SDS011;13866;50.748;12.630;2023-12-20T08:41:12;1.50;;;1.50;;
26106;SDS011;13866;50.748;12.630;2023-12-20T08:43:37;2.13;;;2.13;;
26106;SDS011;13866;50.748;12.630;2023-12-20T08:46:05;1.83;;;1.83;;
26106;SDS011;13866;50.748;12.630;2023-12-20T08:48:31;2.43;;;2.43;;
26106;SDS011;13866;50.748;12.630;2023-12-20T08:50:56;2.53;;;2.40;;
26106;SDS011;13866;50.748;12.630;2023-12-20T08:53:22;2.73;;;2.73;;
26106;SDS011;13866;50.748;12.630;2023-12-20T08:55:47;2.93;;;2.93;;
26106;SDS011;13866;50.748;12.630;2023-12-20T08:58:13;2.90;;;2.87;;
26106;SDS011;13866;50.748;12.630;2023-12-20T09:00:39;3.13;;;2.97;;
26106;SDS011;13866;50.748;12.630;2023-12-20T09:03:05;3.50;;;3.50;;
26106;SDS011;13866;50.748;12.630;2023-12-20T09:05:31;3.33;;;3.23;;
26106;SDS011;13866;50.748;12.630;2023-12-20T09:07:56;3.17;;;3.17;;
26106;SDS011;13866;50.748;12.630;2023-12-20T09:10:22;3.33;;;3.27;;
26106;SDS011;13866;50.748;12.630;2023-12-20T09:12:48;4.00;;;3.70;;
26106;SDS011;13866;50.748;12.630;2023-12-20T09:15:23;2.87;;;2.80;;
26106;SDS011;13866;50.748;12.630;2023-12-20T09:17:49;2.63;;;2.63;;
26106;SDS011;13866;50.748;12.630;2023-12-20T09:20:14;3.10;;;3.10;;
26106;SDS011;13866;50.748;12.630;2023-12-20T09:22:40;3.10;;;2.90;;
26106;SDS011;13866;50.748;12.630;2023-12-20T09:25:06;3.50;;;3.40;;
26106;SDS011;13866;50.748;12.630;2023-12-20T09:27:32;3.47;;;3.20;;
26106;SDS011;13866;50.748;12.630;2023-12-20T09:29:58;3.07;;;2.70;;
26106;SDS011;13866;50.748;12.630;2023-12-20T09:32:23;2.50;;;2.40;;
26106;SDS011;13866;50.748;12.630;2023-12-20T09:34:49;3.30;;;3.10;;
26106;SDS011;13866;50.748;12.630;2023-12-20T09:37:14;5.97;;;2.53;;
26106;SDS011;13866;50.748;12.630;2023-12-20T09:39:40;2.80;;;2.70;;
26106;SDS011;13866;50.748;12.630;2023-12-20T09:42:06;3.30;;;3.00;;
26106;SDS011;13866;50.748;12.630;2023-12-20T09:44:32;3.47;;;3.37;;
26106;SDS011;13866;50.748;12.630;2023-12-20T09:46:59;2.40;;;2.40;;
26106;SDS011;13866;50.748;12.630;2023-12-20T09:49:30;2.83;;;2.83;;
26106;SDS011;13866;50.748;12.630;2023-12-20T09:51:57;3.30;;;2.93;;
26106;SDS011;13866;50.748;12.630;2023-12-20T09:54:24;3.50;;;3.20;;
26106;SDS011;13866;50.748;12.630;2023-12-20T09:56:51;3.37;;;3.10;;
26106;SDS011;13866;50.748;12.630;2023-12-20T09:59:17;2.40;;;2.40;;
26106;SDS011;13866;50.748;12.630;2023-12-20T10:01:43;2.63;;;2.63;;
26106;SDS011;13866;50.748;12.630;2023-12-20T10:04:09;4.13;;;2.70;;
26106;SDS011;13866;50.748;12.630;2023-12-20T10:06:42;2.73;;;2.73;;
26106;SDS011;13866;50.748;12.630;2023-12-20T10:09:08;2.60;;;2.50;;
26106;SDS011;13866;50.748;12.630;2023-12-20T10:11:35;3.30;;;3.10;;
26106;SDS011;13866;50.748;12.630;2023-12-20T10:14:02;3.27;;;3.17;;
26106;SDS011;13866;50.748;12.630;2023-12-20T10:16:28;3.93;;;3.63;;
26106;SDS011;13866;50.748;12.630;2023-12-20T10:18:55;3.33;;;3.20;;
26106;SDS011;13866;50.748;12.630;2023-12-20T10:21:24;3.77;;;3.57;;
26106;SDS011;13866;50.748;12.630;2023-12-20T10:23:57;4.17;;;2.80;;
26106;SDS011;13866;50.748;12.630;2023-12-20T10:26:24;4.03;;;3.47;;
26106;SDS011;13866;50.748;12.630;2023-12-20T10:28:54;5.60;;;3.60;;
26106;SDS011;13866;50.748;12.630;2023-12-20T10:31:34;3.50;;;3.30;;
26106;SDS011;13866;50.748;12.630;2023-12-20T10:34:00;2.83;;;2.83;;
26106;SDS011;13866;50.748;12.630;2023-12-20T10:36:31;3.80;;;3.60;;
26106;SDS011;13866;50.748;12.630;2023-12-20T10:38:57;3.83;;;3.53;;
26106;SDS011;13866;50.748;12.630;2023-12-20T10:41:31;3.40;;;3.40;;
26106;SDS011;13866;50.748;12.630;2023-12-20T10:43:58;5.20;;;2.90;;
26106;SDS011;13866;50.748;12.630;2023-12-20T10:46:28;3.30;;;3.20;;
26106;SDS011;13866;50.748;12.630;2023-12-20T10:48:55;5.07;;;3.50;;
26106;SDS011;13866;50.748;12.630;2023-12-20T10:51:21;3.70;;;3.50;;
26106;SDS011;13866;50.748;12.630;2023-12-20T10:53:48;2.73;;;2.73;;
26106;SDS011;13866;50.748;12.630;2023-12-20T10:56:18;3.20;;;3.00;;
26106;SDS011;13866;50.748;12.630;2023-12-20T10:58:45;2.90;;;2.77;;
26106;SDS011;13866;50.748;12.630;2023-12-20T11:01:15;2.40;;;2.40;;
26106;SDS011;13866;50.748;12.630;2023-12-20T11:03:44;9.73;;;2.60;;
26106;SDS011;13866;50.748;12.630;2023-12-20T11:08:50;5.03;;;2.50;;
26106;SDS011;13866;50.748;12.630;2023-12-20T11:11:23;5.43;;;3.10;;
26106;SDS011;13866;50.748;12.630;2023-12-20T11:14:05;8.50;;;2.67;;
26106;SDS011;13866;50.748;12.630;2023-12-20T11:16:36;2.37;;;2.37;;
26106;SDS011;13866;50.748;12.630;2023-12-20T11:19:05;2.57;;;2.37;;
26106;SDS011;13866;50.748;12.630;2023-12-20T11:21:31;2.07;;;2.07;;
26106;SDS011;13866;50.748;12.630;2023-12-20T11:23:57;2.30;;;2.10;;
26106;SDS011;13866;50.748;12.630;2023-12-20T11:26:26;7.23;;;2.53;;
26106;SDS011;13866;50.748;12.630;2023-12-20T11:28:53;3.70;;;3.43;;
26106;SDS011;13866;50.748;12.630;2023-12-20T11:31:19;2.80;;;2.70;;
26106;SDS011;13866;50.748;12.630;2023-12-20T11:33:44;2.07;;;1.97;;
26106;SDS011;13866;50.748;12.630;2023-12-20T11:36:18;2.50;;;2.40;;
26106;SDS011;13866;50.748;12.630;2023-12-20T11:38:57;2.40;;;2.20;;
26106;SDS011;13866;50.748;12.630;2023-12-20T11:41:25;2.53;;;2.53;;
26106;SDS011;13866;50.748;12.630;2023-12-20T11:43:54;2.87;;;2.67;;
26106;SDS011;13866;50.748;12.630;2023-12-20T11:46:20;9.03;;;2.53;;
26106;SDS011;13866;50.748;12.630;2023-12-20T11:48:45;4.87;;;4.57;;
26106;SDS011;13866;50.748;12.630;2023-12-20T11:51:12;4.20;;;3.80;;
26106;SDS011;13866;50.748;12.630;2023-12-20T11:53:41;4.63;;;4.50;;
26106;SDS011;13866;50.748;12.630;2023-12-20T11:56:07;12.77;;;6.23;;
26106;SDS011;13866;50.748;12.630;2023-12-20T11:58:33;11.50;;;3.70;;
26106;SDS011;13866;50.748;12.630;2023-12-20T12:00:59;2.60;;;2.50;;
26106;SDS011;13866;50.748;12.630;2023-12-20T12:03:27;15.03;;;2.47;;
26106;SDS011;13866;50.748;12.630;2023-12-20T12:05:53;2.90;;;2.80;;
26106;SDS011;13866;50.748;12.630;2023-12-20T12:08:18;7.83;;;3.17;;
26106;SDS011;13866;50.748;12.630;2023-12-20T12:10:44;3.83;;;3.40;;
26106;SDS011;13866;50.748;12.630;2023-12-20T12:13:10;2.50;;;2.50;;
26106;SDS011;13866;50.748;12.630;2023-12-20T12:15:36;2.60;;;2.47;;
26106;SDS011;13866;50.748;12.630;2023-12-20T12:18:02;4.77;;;2.63;;
26106;SDS011;13866;50.748;12.630;2023-12-20T12:20:28;2.60;;;2.50;;
26106;SDS011;13866;50.748;12.630;2023-12-20T12:22:57;5.00;;;2.13;;
26106;SDS011;13866;50.748;12.630;2023-12-20T12:25:26;2.53;;;2.43;;
26106;SDS011;13866;50.748;12.630;2023-12-20T12:27:53;2.50;;;2.40;;
26106;SDS011;13866;50.748;12.630;2023-12-20T12:30:18;3.83;;;2.03;;
26106;SDS011;13866;50.748;12.630;2023-12-20T12:32:44;2.80;;;2.30;;
26106;SDS011;13866;50.748;12.630;2023-12-20T12:35:10;2.17;;;2.17;;
26106;SDS011;13866;50.748;12.630;2023-12-20T12:37:36;1.57;;;1.53;;
26106;SDS011;13866;50.748;12.630;2023-12-20T12:40:04;11.97;;;2.60;;
26106;SDS011;13866;50.748;12.630;2023-12-20T12:42:30;3.60;;;2.47;;
26106;SDS011;13866;50.748;12.630;2023-12-20T12:44:56;1.80;;;1.80;;
26106;SDS011;13866;50.748;12.630;2023-12-20T12:47:21;1.80;;;1.80;;
26106;SDS011;13866;50.748;12.630;2023-12-20T12:49:47;4.77;;;2.10;;
26106;SDS011;13866;50.748;12.630;2023-12-20T12:52:16;7.20;;;2.30;;
26106;SDS011;13866;50.748;12.630;2023-12-20T12:54:41;1.70;;;1.70;;
26106;SDS011;13866;50.748;12.630;2023-12-20T12:57:07;4.33;;;2.13;;
26106;SDS011;13866;50.748;12.630;2023-12-20T12:59:33;1.90;;;1.90;;
26106;SDS011;13866;50.748;12.630;2023-12-20T13:01:58;3.67;;;2.10;;
26106;SDS011;13866;50.748;12.630;2023-12-20T13:04:24;2.07;;;1.97;;
26106;SDS011;13866;50.748;12.630;2023-12-20T13:06:49;2.20;;;2.10;;
26106;SDS011;13866;50.748;12.630;2023-12-20T13:09:15;1.50;;;1.50;;
26106;SDS011;13866;50.748;12.630;2023-12-20T13:11:40;2.47;;;2.33;;
26106;SDS011;13866;50.748;12.630;2023-12-20T13:14:06;7.83;;;2.50;;
26106;SDS011;13866;50.748;12.630;2023-12-20T13:16:32;5.40;;;2.30;;
26106;SDS011;13866;50.748;12.630;2023-12-20T13:18:59;2.80;;;2.70;;
26106;SDS011;13866;50.748;12.630;2023-12-20T13:21:24;2.67;;;2.40;;
26106;SDS011;13866;50.748;12.630;2023-12-20T13:23:50;2.70;;;2.60;;
26106;SDS011;13866;50.748;12.630;2023-12-20T13:26:16;3.00;;;2.90;;
26106;SDS011;13866;50.748;12.630;2023-12-20T13:28:42;3.57;;;2.27;;
26106;SDS011;13866;50.748;12.630;2023-12-20T13:31:08;2.10;;;2.00;;
26106;SDS011;13866;50.748;12.630;2023-12-20T13:33:33;3.83;;;2.30;;
26106;SDS011;13866;50.748;12.630;2023-12-20T13:35:59;3.27;;;2.00;;
26106;SDS011;13866;50.748;12.630;2023-12-20T13:38:24;2.20;;;2.10;;
26106;SDS011;13866;50.748;12.630;2023-12-20T13:40:50;2.27;;;1.93;;
26106;SDS011;13866;50.748;12.630;2023-12-20T13:43:15;2.50;;;1.93;;
26106;SDS011;13866;50.748;12.630;2023-12-20T13:45:45;1.70;;;1.60;;
26106;SDS011;13866;50.748;12.630;2023-12-20T13:48:11;2.20;;;2.10;;
26106;SDS011;13866;50.748;12.630;2023-12-20T13:50:37;3.80;;;2.27;;
26106;SDS011;13866;50.748;12.630;2023-12-20T13:53:02;1.80;;;1.80;;
26106;SDS011;13866;50.748;12.630;2023-12-20T13:55:29;3.03;;;2.40;;
26106;SDS011;13866;50.748;12.630;2023-12-20T13:57:55;2.07;;;1.97;;
26106;SDS011;13866;50.748;12.630;2023-12-20T14:00:21;1.47;;;1.47;;
26106;SDS011;13866;50.748;12.630;2023-12-20T14:02:50;2.40;;;2.20;;
26106;SDS011;13866;50.748;12.630;2023-12-20T14:05:15;2.67;;;1.70;;
26106;SDS011;13866;50.748;12.630;2023-12-20T14:07:42;2.60;;;1.97;;
26106;SDS011;13866;50.748;12.630;2023-12-20T14:10:09;1.90;;;1.80;;
26106;SDS011;13866;50.748;12.630;2023-12-20T14:12:38;1.87;;;1.87;;
26106;SDS011;13866;50.748;12.630;2023-12-20T14:15:04;1.63;;;1.63;;
26106;SDS011;13866;50.748;12.630;2023-12-20T14:17:34;3.80;;;2.07;;
26106;SDS011;13866;50.748;12.630;2023-12-20T14:19:59;2.20;;;2.10;;
26106;SDS011;13866;50.748;12.630;2023-12-20T14:22:25;1.97;;;1.97;;
26106;SDS011;13866;50.748;12.630;2023-12-20T14:24:50;2.90;;;2.43;;
26106;SDS011;13866;50.748;12.630;2023-12-20T14:27:16;4.17;;;3.73;;
26106;SDS011;13866;50.748;12.630;2023-12-20T14:29:41;4.37;;;4.13;;